Time;durP1;ratioP1;P1;durP2;ratioP2;P2;SDS_P1;SDS_P2;PMS_P1;PMS_P2;Temp;Humidity;BMP_temperature;BMP_pressure;BME280_temperature;BME280_humidity;BME280_pressure;Samples;Min_cycle;Max_cycle;Signal;HPM_P1;HPM_P2
2022/10/29 00:00:39;;;;;;;10.23;2.47;;;14.30;99.90;;;;;;5050596;28;20056;-67
2022/10/29 00:03:05;;;;;;;5.57;2.05;;;14.30;99.90;;;;;;5051929;28;20041;-67
2022/10/29 00:05:31;;;;;;;8.43;2.40;;;14.20;99.90;;;;;;5051402;28;20053;-67
2022/10/29 00:07:57;;;;;;;7.03;2.20;;;14.20;99.90;;;;;;5051649;28;20048;-67
2022/10/29 00:10:22;;;;;;;7.43;2.22;;;14.20;99.90;;;;;;5051747;28;20079;-67
2022/10/29 00:12:48;;;;;;;10.95;3.38;;;14.20;99.90;;;;;;5051634;28;20507;-67
2022/10/29 00:15:13;;;;;;;10.65;4.10;;;14.10;99.90;;;;;;5051454;28;20043;-67
2022/10/29 00:17:39;;;;;;;14.70;5.65;;;14.20;99.90;;;;;;5051588;28;20041;-67
2022/10/29 00:20:05;;;;;;;17.83;5.40;;;14.20;99.90;;;;;;5051553;28;20048;-66
2022/10/29 00:22:31;;;;;;;15.07;5.13;;;14.10;99.90;;;;;;5051581;28;20102;-67
2022/10/29 00:24:57;;;;;;;14.98;5.50;;;14.00;99.90;;;;;;5050919;28;20048;-66
2022/10/29 00:27:22;;;;;;;14.93;6.05;;;14.00;99.90;;;;;;5051143;28;20130;-67
2022/10/29 00:29:48;;;;;;;10.23;4.95;;;14.00;99.90;;;;;;5051416;28;20048;-67
2022/10/29 00:32:13;;;;;;;15.25;4.55;;;14.00;99.90;;;;;;5051207;28;20025;-67
2022/10/29 00:34:39;;;;;;;8.00;2.63;;;13.90;99.90;;;;;;5049605;28;20429;-67
2022/10/29 00:37:05;;;;;;;8.63;2.55;;;13.80;99.90;;;;;;5051199;28;20124;-67
2022/10/29 00:39:32;;;;;;;7.18;2.35;;;13.70;99.90;;;;;;5051284;28;20052;-67
2022/10/29 00:41:58;;;;;;;8.55;2.47;;;13.70;99.90;;;;;;5051260;28;20112;-67
2022/10/29 00:44:27;;;;;;;10.02;3.17;;;13.70;99.90;;;;;;5050810;28;20102;-67
2022/10/29 00:47:12;;;;;;;8.88;2.28;;;13.60;99.90;;;;;;5051126;28;20041;-67
2022/10/29 00:49:39;;;;;;;3.30;2.08;;;13.60;99.90;;;;;;5051142;28;20063;-66
2022/10/29 00:52:06;;;;;;;6.55;2.65;;;13.50;99.90;;;;;;5051121;28;20040;-67
2022/10/29 00:54:35;;;;;;;7.38;2.72;;;13.40;99.90;;;;;;5050153;28;20041;-67
2022/10/29 00:57:12;;;;;;;9.73;1.92;;;13.40;99.90;;;;;;5051012;28;20135;-67
2022/10/29 00:59:39;;;;;;;11.30;2.60;;;13.30;99.90;;;;;;5049406;28;20049;-67
2022/10/29 01:02:04;;;;;;;10.77;2.78;;;13.30;99.90;;;;;;5050796;28;20516;-67
2022/10/29 01:04:30;;;;;;;6.88;2.33;;;13.20;99.90;;;;;;5049062;28;20045;-67
2022/10/29 01:06:56;;;;;;;8.13;3.08;;;13.30;99.90;;;;;;5050695;28;20498;-67
2022/10/29 01:09:21;;;;;;;5.68;2.38;;;13.20;99.90;;;;;;5050930;28;20615;-67
2022/10/29 01:12:01;;;;;;;6.80;2.42;;;13.20;99.90;;;;;;5050719;28;20548;-66
2022/10/29 01:14:34;;;;;;;6.30;2.30;;;13.20;99.90;;;;;;5050718;28;20049;-66
2022/10/29 01:17:39;;;;;;;5.32;2.20;;;13.10;99.90;;;;;;5050336;28;20489;-67
2022/10/29 01:20:26;;;;;;;8.27;4.05;;;13.10;99.90;;;;;;5050679;28;20037;-66
2022/10/29 01:23:10;;;;;;;10.07;3.10;;;13.10;99.90;;;;;;5050429;28;20079;-67
2022/10/29 01:25:59;;;;;;;9.52;2.63;;;13.00;99.90;;;;;;5050392;28;20045;-67
2022/10/29 01:28:43;;;;;;;6.47;2.47;;;13.00;99.90;;;;;;5049477;28;20397;-66
2022/10/29 01:31:41;;;;;;;6.43;2.28;;;13.00;99.90;;;;;;5050418;28;20037;-67
2022/10/29 01:34:13;;;;;;;9.68;3.17;;;12.90;99.90;;;;;;5049133;28;20090;-67
2022/10/29 01:36:52;;;;;;;14.93;3.35;;;12.90;99.90;;;;;;5050548;28;20132;-67
2022/10/29 01:39:36;;;;;;;9.38;2.47;;;12.90;99.90;;;;;;5050490;28;20045;-67
2022/10/29 01:42:11;;;;;;;9.02;3.10;;;12.90;99.90;;;;;;5050202;28;20120;-67
2022/10/29 01:44:52;;;;;;;6.75;3.20;;;12.90;99.90;;;;;;5050383;28;20048;-67
2022/10/29 01:47:19;;;;;;;10.63;3.90;;;12.90;99.90;;;;;;5050264;28;20071;-67
2022/10/29 01:49:50;;;;;;;16.35;5.05;;;12.90;99.90;;;;;;5050393;28;20036;-66
2022/10/29 01:52:19;;;;;;;9.18;3.40;;;12.90;99.90;;;;;;5050256;28;20405;-67
2022/10/29 01:54:46;;;;;;;7.38;3.50;;;12.80;99.90;;;;;;5049956;28;20116;-67
2022/10/29 01:57:31;;;;;;;12.13;4.28;;;12.90;99.90;;;;;;5050462;28;20048;-67
2022/10/29 02:00:01;;;;;;;9.57;4.15;;;12.80;99.90;;;;;;5049884;28;20594;-67
2022/10/29 02:02:49;;;;;;;12.68;5.22;;;12.70;99.90;;;;;;5050217;28;20146;-67
2022/10/29 02:05:30;;;;;;;6.55;3.35;;;12.70;99.90;;;;;;5051179;28;20044;-67
2022/10/29 02:08:07;;;;;;;3.72;2.42;;;12.70;99.90;;;;;;5053926;28;20722;-67
2022/10/29 02:10:49;;;;;;;5.10;2.45;;;12.60;99.90;;;;;;5053953;28;20044;-67
2022/10/29 02:13:18;;;;;;;5.45;2.53;;;12.50;99.90;;;;;;5054031;28;20041;-67
2022/10/29 02:15:51;;;;;;;4.43;2.42;;;12.50;99.90;;;;;;5053434;28;20056;-67
2022/10/29 02:18:17;;;;;;;5.55;2.35;;;12.50;99.90;;;;;;5054036;28;20079;-67
2022/10/29 02:20:44;;;;;;;6.93;3.10;;;12.40;99.90;;;;;;5053579;28;20486;-67
2022/10/29 02:23:09;;;;;;;6.60;2.78;;;12.40;99.90;;;;;;5053807;28;20036;-67
2022/10/29 02:25:35;;;;;;;6.07;3.03;;;12.50;99.90;;;;;;5051933;28;20552;-67
2022/10/29 02:28:01;;;;;;;4.55;2.70;;;12.30;99.90;;;;;;5053765;28;20058;-67
2022/10/29 02:30:27;;;;;;;4.03;2.45;;;12.30;99.90;;;;;;5053738;28;20363;-67
2022/10/29 02:32:52;;;;;;;4.15;2.58;;;12.30;99.90;;;;;;5053792;28;20048;-67
2022/10/29 02:35:18;;;;;;;4.35;2.30;;;12.20;99.90;;;;;;5053397;28;20048;-67
2022/10/29 02:37:43;;;;;;;7.30;2.72;;;12.20;99.90;;;;;;5053366;28;20043;-67
2022/10/29 02:40:09;;;;;;;3.75;2.20;;;12.20;99.90;;;;;;5053873;28;20107;-67
2022/10/29 02:42:35;;;;;;;3.55;2.05;;;12.10;99.90;;;;;;5053111;28;20045;-67
2022/10/29 02:45:00;;;;;;;3.38;2.53;;;12.10;99.90;;;;;;5052939;28;20044;-67
2022/10/29 02:47:27;;;;;;;24.08;4.00;;;12.10;99.90;;;;;;5053149;28;20041;-67
2022/10/29 02:49:52;;;;;;;9.55;2.78;;;12.10;99.90;;;;;;5053317;28;20043;-66
2022/10/29 02:52:18;;;;;;;12.30;2.78;;;11.90;99.90;;;;;;5053252;28;20429;-66
2022/10/29 02:54:43;;;;;;;4.28;2.40;;;11.90;99.90;;;;;;5052972;28;20536;-66
2022/10/29 02:57:09;;;;;;;3.60;2.75;;;11.80;99.90;;;;;;5052901;28;20091;-66
2022/10/29 02:59:34;;;;;;;3.85;2.60;;;11.90;99.90;;;;;;5052889;28;20043;-67
2022/10/29 03:02:00;;;;;;;3.42;2.72;;;11.90;99.90;;;;;;5053257;28;20049;-67
2022/10/29 03:04:25;;;;;;;4.38;2.80;;;11.90;99.90;;;;;;5052776;28;20033;-67
2022/10/29 03:06:51;;;;;;;3.92;2.22;;;12.00;99.90;;;;;;5052815;28;20071;-66
2022/10/29 03:09:16;;;;;;;8.00;2.15;;;12.00;99.90;;;;;;5052699;28;20120;-66
2022/10/29 03:11:42;;;;;;;2.63;2.30;;;11.80;99.90;;;;;;5051690;28;20417;-67
2022/10/29 03:14:07;;;;;;;5.72;2.60;;;11.90;99.90;;;;;;5052324;28;20052;-67
2022/10/29 03:16:33;;;;;;;2.72;2.40;;;11.90;99.90;;;;;;5052319;28;20037;-66
2022/10/29 03:18:58;;;;;;;5.40;2.50;;;12.00;99.90;;;;;;5052552;28;20493;-67
2022/10/29 03:21:24;;;;;;;3.58;2.33;;;11.90;99.90;;;;;;5052765;28;20036;-66
2022/10/29 03:23:49;;;;;;;6.68;2.63;;;11.90;99.90;;;;;;5052577;28;20041;-67
2022/10/29 03:26:15;;;;;;;8.82;2.92;;;11.80;99.90;;;;;;5052545;28;20037;-67
2022/10/29 03:28:40;;;;;;;15.23;3.35;;;11.70;99.90;;;;;;5052715;28;20486;-67
2022/10/29 03:31:06;;;;;;;13.63;4.32;;;11.80;99.90;;;;;;5052495;28;20456;-66
2022/10/29 03:33:32;;;;;;;8.45;3.45;;;11.80;99.90;;;;;;5051128;28;20045;-67
2022/10/29 03:35:59;;;;;;;4.68;2.65;;;11.90;99.90;;;;;;5052091;28;20091;-67
2022/10/29 03:38:25;;;;;;;5.82;2.65;;;11.90;99.90;;;;;;5052329;28;20044;-66
2022/10/29 03:40:50;;;;;;;10.35;3.50;;;11.90;99.90;;;;;;5052197;28;20037;-66
2022/10/29 03:43:16;;;;;;;10.93;3.33;;;11.90;99.90;;;;;;5052218;28;20111;-67
2022/10/29 03:45:42;;;;;;;9.25;3.90;;;11.90;99.90;;;;;;5051822;28;20052;-67
2022/10/29 03:48:07;;;;;;;10.75;3.88;;;12.00;99.90;;;;;;5052116;28;20120;-66
2022/10/29 03:50:33;;;;;;;7.60;3.47;;;12.00;99.90;;;;;;5052296;28;20047;-66
2022/10/29 03:52:58;;;;;;;9.95;3.58;;;12.00;99.90;;;;;;5051838;28;20486;-66
2022/10/29 03:55:24;;;;;;;6.72;3.40;;;11.90;99.90;;;;;;5051863;28;20049;-67
2022/10/29 03:57:49;;;;;;;5.95;2.90;;;11.80;99.90;;;;;;5050505;28;20481;-66
2022/10/29 04:00:15;;;;;;;4.32;2.50;;;11.80;99.90;;;;;;5051780;28;20039;-67
2022/10/29 04:02:41;;;;;;;6.22;2.72;;;11.80;99.90;;;;;;5051816;28;20045;-67
2022/10/29 04:05:07;;;;;;;3.75;2.90;;;11.90;99.90;;;;;;5051354;28;20040;-67
2022/10/29 04:07:33;;;;;;;3.92;2.78;;;11.90;99.90;;;;;;5051630;28;20041;-67
2022/10/29 04:09:58;;;;;;;7.20;3.45;;;11.90;99.90;;;;;;5051421;28;20036;-67
2022/10/29 04:12:24;;;;;;;5.10;3.17;;;11.90;99.90;;;;;;5051645;28;20032;-66
2022/10/29 04:14:49;;;;;;;6.18;3.60;;;11.90;99.90;;;;;;5051321;28;20399;-66
2022/10/29 04:17:15;;;;;;;7.47;3.63;;;11.90;99.90;;;;;;5051773;28;20041;-66
2022/10/29 04:19:40;;;;;;;10.60;3.80;;;11.90;99.90;;;;;;5051348;28;20080;-66
2022/10/29 04:22:06;;;;;;;4.35;3.70;;;11.90;99.90;;;;;;5051805;28;20048;-67
2022/10/29 04:24:32;;;;;;;7.28;3.72;;;11.80;99.90;;;;;;5051180;28;20505;-67
2022/10/29 04:26:57;;;;;;;6.38;3.53;;;11.80;99.90;;;;;;5051515;28;20053;-67
2022/10/29 04:29:23;;;;;;;8.35;3.78;;;11.90;99.90;;;;;;5050579;28;20079;-67
2022/10/29 04:31:48;;;;;;;5.45;4.00;;;12.00;99.90;;;;;;5051421;28;20116;-67
2022/10/29 04:34:14;;;;;;;6.15;3.80;;;12.00;99.90;;;;;;5051203;28;20036;-67
2022/10/29 04:36:39;;;;;;;7.57;4.05;;;12.00;99.90;;;;;;5051116;28;20095;-66
2022/10/29 04:39:05;;;;;;;4.85;3.40;;;12.00;99.90;;;;;;5051257;28;20126;-67
2022/10/29 04:41:31;;;;;;;6.30;3.60;;;12.00;99.90;;;;;;5051145;28;20528;-67
2022/10/29 04:43:56;;;;;;;9.15;3.78;;;12.00;99.90;;;;;;5051004;28;20142;-67
2022/10/29 04:46:22;;;;;;;13.75;3.95;;;12.00;99.90;;;;;;5051084;28;20045;-67
2022/10/29 04:48:47;;;;;;;8.10;3.72;;;12.00;99.90;;;;;;5050794;28;20037;-67
2022/10/29 04:51:21;;;;;;;8.85;3.53;;;11.90;99.90;;;;;;5050868;28;20029;-66
2022/10/29 04:53:46;;;;;;;17.17;4.15;;;11.90;99.90;;;;;;5050916;28;20409;-67
2022/10/29 04:56:12;;;;;;;7.85;4.10;;;12.00;99.90;;;;;;5051016;28;20040;-67
2022/10/29 04:58:37;;;;;;;9.68;3.88;;;11.90;99.90;;;;;;5050763;28;20029;-67
2022/10/29 05:01:03;;;;;;;12.10;4.22;;;12.00;99.90;;;;;;5051023;28;20045;-67
2022/10/29 05:03:33;;;;;;;14.57;4.97;;;11.90;99.90;;;;;;5050745;28;20079;-67
2022/10/29 05:06:02;;;;;;;12.57;4.68;;;11.90;99.90;;;;;;5050554;28;20051;-67
2022/10/29 05:08:27;;;;;;;11.13;4.85;;;11.90;99.90;;;;;;5050279;28;20045;-67
2022/10/29 05:10:53;;;;;;;14.23;5.03;;;11.90;99.90;;;;;;5051069;28;20112;-66
2022/10/29 05:13:18;;;;;;;16.13;4.75;;;12.00;99.90;;;;;;5050689;28;20453;-66
2022/10/29 05:15:49;;;;;;;11.95;5.47;;;11.90;99.90;;;;;;5050536;28;20116;-67
2022/10/29 05:18:15;;;;;;;13.88;5.13;;;11.90;99.90;;;;;;5050647;28;20120;-67
2022/10/29 05:20:40;;;;;;;12.57;5.55;;;11.90;99.90;;;;;;5050798;28;20116;-67
2022/10/29 05:23:09;;;;;;;18.90;6.15;;;12.00;99.90;;;;;;5050377;28;20049;-67
2022/10/29 05:25:36;;;;;;;13.85;5.90;;;12.00;99.90;;;;;;5050416;28;20033;-67
2022/10/29 05:28:05;;;;;;;11.60;5.97;;;11.90;99.90;;;;;;5050740;28;20045;-67
2022/10/29 05:30:32;;;;;;;18.23;6.03;;;12.00;99.90;;;;;;5050760;28;20043;-66
2022/10/29 05:32:57;;;;;;;17.13;6.30;;;12.00;99.90;;;;;;5050501;28;20084;-67
2022/10/29 05:35:23;;;;;;;19.75;6.78;;;12.00;99.90;;;;;;5050023;28;20041;-67
2022/10/29 05:37:53;;;;;;;21.05;7.18;;;12.00;99.90;;;;;;5049084;28;20041;-67
2022/10/29 05:40:19;;;;;;;24.65;7.40;;;12.00;99.90;;;;;;5051962;28;20444;-67
2022/10/29 05:42:45;;;;;;;17.63;6.85;;;12.00;99.90;;;;;;5054718;28;20056;-67
2022/10/29 05:45:10;;;;;;;22.50;7.10;;;12.10;99.90;;;;;;5054035;28;20378;-67
2022/10/29 05:47:36;;;;;;;21.20;7.05;;;12.10;99.90;;;;;;5053849;28;20084;-67
2022/10/29 05:50:02;;;;;;;23.95;6.75;;;12.10;99.90;;;;;;5054209;28;20124;-67
2022/10/29 05:52:27;;;;;;;11.85;6.53;;;12.10;99.90;;;;;;5054529;28;20528;-67
2022/10/29 05:54:53;;;;;;;21.25;6.85;;;12.10;99.90;;;;;;5054189;28;20095;-67
2022/10/29 05:57:19;;;;;;;45.05;8.20;;;12.10;99.90;;;;;;5054142;28;20041;-67
2022/10/29 05:59:45;;;;;;;30.20;6.72;;;12.10;99.90;;;;;;5054181;28;20053;-67
2022/10/29 06:02:10;;;;;;;20.15;5.85;;;12.10;99.90;;;;;;5054090;28;20052;-67
2022/10/29 06:04:36;;;;;;;14.65;6.75;;;12.00;99.90;;;;;;5053798;28;20036;-67
2022/10/29 06:07:01;;;;;;;21.42;6.68;;;12.00;99.90;;;;;;5054147;28;20131;-67
2022/10/29 06:09:27;;;;;;;15.43;6.65;;;12.00;99.90;;;;;;5054233;28;20072;-67
2022/10/29 06:11:53;;;;;;;24.92;6.40;;;12.00;99.90;;;;;;5054089;28;20130;-67
2022/10/29 06:14:19;;;;;;;28.75;7.07;;;12.00;99.90;;;;;;5053852;28;20037;-66
2022/10/29 06:16:44;;;;;;;26.25;6.20;;;12.00;99.90;;;;;;5053873;28;20063;-67
2022/10/29 06:19:10;;;;;;;33.83;7.45;;;12.00;99.90;;;;;;5053784;28;20095;-67
2022/10/29 06:21:35;;;;;;;24.30;7.13;;;12.00;99.90;;;;;;5054004;28;20118;-67
2022/10/29 06:24:01;;;;;;;12.15;6.65;;;12.00;99.90;;;;;;5053589;28;20052;-67
2022/10/29 06:26:27;;;;;;;14.77;6.57;;;12.00;99.90;;;;;;5053573;28;20037;-67
2022/10/29 06:28:52;;;;;;;17.98;6.40;;;12.10;99.90;;;;;;5053540;28;20033;-67
2022/10/29 06:31:18;;;;;;;19.50;6.63;;;12.10;99.90;;;;;;5053782;28;20044;-66
2022/10/29 06:33:43;;;;;;;21.30;7.18;;;12.10;99.90;;;;;;5052889;28;20532;-66
2022/10/29 06:36:09;;;;;;;25.65;6.50;;;12.00;99.90;;;;;;5050715;28;20084;-67
2022/10/29 06:38:34;;;;;;;15.63;7.40;;;12.00;99.90;;;;;;5050500;28;20077;-67
2022/10/29 06:41:00;;;;;;;10.30;6.00;;;12.00;99.90;;;;;;5052267;28;20119;-67
2022/10/29 06:43:26;;;;;;;16.00;7.45;;;12.10;99.90;;;;;;5052900;28;20040;-67
2022/10/29 06:45:51;;;;;;;16.83;7.72;;;12.20;99.90;;;;;;5052431;28;20044;-67
2022/10/29 06:48:17;;;;;;;19.27;6.28;;;12.10;99.90;;;;;;5052441;28;20072;-67
2022/10/29 06:50:42;;;;;;;17.25;7.50;;;12.10;99.90;;;;;;5052895;28;20041;-67
2022/10/29 06:53:11;;;;;;;13.27;6.18;;;12.10;99.90;;;;;;5052513;28;20041;-67
2022/10/29 06:55:38;;;;;;;16.67;7.63;;;12.10;99.90;;;;;;5052873;28;20041;-67
2022/10/29 06:58:11;;;;;;;15.00;6.85;;;12.20;99.90;;;;;;5053284;28;20041;-67
2022/10/29 07:00:37;;;;;;;17.33;7.80;;;12.20;99.90;;;;;;5052909;28;20041;-67
2022/10/29 07:03:03;;;;;;;15.38;7.90;;;12.20;99.90;;;;;;5052747;28;20093;-67
2022/10/29 07:05:30;;;;;;;16.70;8.55;;;12.20;99.90;;;;;;5052746;28;20036;-67
2022/10/29 07:07:57;;;;;;;18.17;8.07;;;12.20;99.90;;;;;;5052984;28;20032;-67
2022/10/29 07:10:23;;;;;;;16.77;8.73;;;12.20;99.90;;;;;;5053146;28;20044;-67
2022/10/29 07:12:49;;;;;;;15.65;8.48;;;12.20;99.90;;;;;;5051328;28;20052;-67
2022/10/29 07:15:14;;;;;;;17.92;9.43;;;12.30;99.90;;;;;;5051121;28;20489;-66
2022/10/29 07:17:40;;;;;;;12.43;8.40;;;12.30;99.90;;;;;;5052353;28;20125;-67
2022/10/29 07:20:07;;;;;;;13.50;8.70;;;12.30;99.90;;;;;;5052737;28;20107;-67
2022/10/29 07:22:33;;;;;;;13.52;8.90;;;12.30;99.90;;;;;;5052734;28;20382;-66
2022/10/29 07:24:59;;;;;;;17.48;9.63;;;12.40;99.90;;;;;;5052348;28;20061;-67
2022/10/29 07:27:26;;;;;;;15.80;11.15;;;12.50;99.90;;;;;;5052409;28;20597;-67
2022/10/29 07:29:51;;;;;;;20.33;10.45;;;12.60;99.90;;;;;;5052319;28;20501;-67
2022/10/29 07:32:17;;;;;;;17.13;10.02;;;12.60;99.90;;;;;;5052456;28;20041;-67
2022/10/29 07:34:42;;;;;;;19.00;10.68;;;12.70;99.90;;;;;;5052113;28;20044;-67
2022/10/29 07:37:08;;;;;;;22.00;11.80;;;12.70;99.90;;;;;;5052590;28;20045;-67
2022/10/29 07:39:33;;;;;;;20.73;11.48;;;12.70;99.90;;;;;;5052375;28;20044;-67
2022/10/29 07:41:59;;;;;;;23.02;11.43;;;12.80;99.90;;;;;;5052284;28;20400;-67
2022/10/29 07:44:24;;;;;;;22.88;10.82;;;12.80;99.90;;;;;;5051960;28;20493;-67
2022/10/29 07:46:50;;;;;;;21.52;10.82;;;12.80;99.90;;;;;;5052241;28;20071;-67
2022/10/29 07:49:15;;;;;;;22.35;10.45;;;12.80;99.90;;;;;;5051653;28;20067;-67
2022/10/29 07:51:41;;;;;;;17.02;10.43;;;12.80;99.90;;;;;;5049647;28;20041;-67
2022/10/29 07:54:07;;;;;;;18.65;10.05;;;12.80;99.90;;;;;;5049889;28;20041;-67
2022/10/29 07:56:32;;;;;;;15.75;9.70;;;12.80;99.90;;;;;;5051565;28;20044;-67
2022/10/29 07:58:58;;;;;;;22.85;10.27;;;12.90;99.90;;;;;;5051392;28;20071;-67
2022/10/29 08:01:23;;;;;;;23.98;10.75;;;12.80;99.90;;;;;;5030461;28;20387;-67
2022/10/29 08:03:49;;;;;;;21.98;10.52;;;12.90;99.90;;;;;;5031680;28;20412;-67
2022/10/29 08:06:15;;;;;;;18.70;10.10;;;12.90;99.90;;;;;;5032013;28;20128;-67
2022/10/29 08:08:42;;;;;;;20.17;9.90;;;13.00;99.90;;;;;;5031812;28;20465;-67
2022/10/29 08:11:08;;;;;;;21.20;10.48;;;13.00;99.90;;;;;;5031731;28;20051;-67
2022/10/29 08:13:33;;;;;;;23.23;9.52;;;13.10;99.90;;;;;;5031670;28;20033;-67
2022/10/29 08:15:59;;;;;;;22.77;10.70;;;13.10;99.90;;;;;;5031585;28;20406;-67
2022/10/29 08:18:25;;;;;;;21.83;10.07;;;13.10;99.90;;;;;;5031711;28;20095;-67
2022/10/29 08:20:50;;;;;;;20.73;9.80;;;13.20;99.90;;;;;;5031747;28;20038;-70
2022/10/29 08:23:16;;;;;;;22.27;10.73;;;13.20;99.90;;;;;;5032066;28;20497;-67
2022/10/29 08:25:42;;;;;;;19.00;10.48;;;13.30;99.90;;;;;;5049211;28;20076;-67
2022/10/29 08:28:10;;;;;;;20.02;9.80;;;13.30;99.90;;;;;;5050633;28;20079;-67
2022/10/29 08:30:36;;;;;;;26.02;10.68;;;13.30;99.90;;;;;;5050976;28;20082;-67
2022/10/29 08:33:03;;;;;;;24.08;10.43;;;13.40;99.90;;;;;;5051168;28;20033;-67
2022/10/29 08:35:29;;;;;;;23.33;10.63;;;13.40;99.90;;;;;;5050839;28;20117;-67
2022/10/29 08:37:55;;;;;;;19.88;9.52;;;13.40;99.90;;;;;;5051006;28;20048;-67
2022/10/29 08:40:52;;;;;;;19.23;10.07;;;13.50;99.90;;;;;;5051050;28;20119;-67
2022/10/29 08:43:52;;;;;;;21.88;10.93;;;13.50;99.90;;;;;;5050839;28;20102;-67
2022/10/29 08:46:36;;;;;;;30.08;11.57;;;13.60;99.90;;;;;;5050865;28;20087;-67
2022/10/29 08:49:05;;;;;;;25.60;12.38;;;13.70;99.90;;;;;;5051142;28;20036;-67
2022/10/29 08:51:41;;;;;;;27.15;11.65;;;13.80;99.90;;;;;;5050428;28;20032;-67
2022/10/29 08:54:12;;;;;;;29.40;12.55;;;13.80;99.90;;;;;;5050645;28;20047;-67
2022/10/29 08:56:42;;;;;;;30.23;12.95;;;13.90;99.90;;;;;;5051079;28;20087;-66
2022/10/29 08:59:20;;;;;;;23.65;12.75;;;13.90;99.90;;;;;;5050742;28;20053;-66
2022/10/29 09:01:46;;;;;;;27.80;13.38;;;14.00;99.90;;;;;;5050909;28;20051;-66
2022/10/29 09:04:25;;;;;;;24.67;11.63;;;14.10;99.90;;;;;;5050534;28;20040;-67
2022/10/29 09:06:59;;;;;;;31.52;12.35;;;14.20;99.90;;;;;;5051190;28;20071;-66
2022/10/29 09:09:59;;;;;;;28.17;13.98;;;14.20;99.90;;;;;;5050960;28;20033;-67
2022/10/29 09:12:33;;;;;;;26.73;12.82;;;14.30;99.90;;;;;;5050825;28;20124;-66
2022/10/29 09:15:09;;;;;;;27.88;12.68;;;14.30;99.90;;;;;;5050200;28;20036;-67
2022/10/29 09:17:42;;;;;;;32.25;12.32;;;14.40;99.90;;;;;;5050927;28;20044;-66
2022/10/29 09:20:39;;;;;;;28.27;12.18;;;14.50;99.90;;;;;;5050622;28;20088;-67
2022/10/29 09:23:22;;;;;;;26.33;12.32;;;14.60;99.90;;;;;;5050702;28;20708;-66
2022/10/29 09:25:54;;;;;;;31.40;13.60;;;14.70;99.90;;;;;;5050329;28;20052;-67
2022/10/29 09:28:43;;;;;;;28.38;12.40;;;14.70;99.90;;;;;;5050748;28;20143;-67
2022/10/29 09:31:33;;;;;;;31.23;14.32;;;14.80;99.90;;;;;;5050734;28;20033;-66
2022/10/29 09:34:24;;;;;;;32.85;12.13;;;14.90;99.90;;;;;;5050375;28;20527;-66
2022/10/29 09:36:50;;;;;;;28.73;11.65;;;14.90;99.90;;;;;;5050547;28;20127;-66
2022/10/29 09:39:26;;;;;;;23.63;11.80;;;15.00;99.90;;;;;;5050641;28;20128;-66
2022/10/29 09:41:53;;;;;;;24.95;11.80;;;15.10;99.90;;;;;;5050490;28;20037;-66
2022/10/29 09:44:34;;;;;;;22.63;10.63;;;15.10;99.90;;;;;;5050304;28;20071;-67
2022/10/29 09:47:19;;;;;;;22.88;10.40;;;15.20;99.90;;;;;;5050524;28;20128;-66
2022/10/29 09:50:10;;;;;;;25.83;11.65;;;15.30;99.90;;;;;;5048769;28;20044;-70
2022/10/29 09:52:40;;;;;;;25.60;11.07;;;15.50;99.90;;;;;;5048883;28;20687;-70
2022/10/29 09:55:16;;;;;;;21.60;10.77;;;15.50;99.90;;;;;;5049977;28;20040;-70
2022/10/29 09:57:42;;;;;;;26.27;10.65;;;15.60;99.90;;;;;;5050328;28;20041;-71
2022/10/29 10:00:29;;;;;;;13.20;6.30;;;15.70;99.90;;;;;;5050041;28;20044;-70
2022/10/29 10:02:58;;;;;;;19.83;10.27;;;16.00;99.90;;;;;;5049560;28;20044;-69
2022/10/29 10:05:30;;;;;;;22.23;9.20;;;16.00;99.90;;;;;;5047293;28;20041;-69
2022/10/29 10:08:13;;;;;;;26.88;9.85;;;16.00;99.90;;;;;;5049212;28;20095;-69
2022/10/29 10:10:51;;;;;;;23.48;9.93;;;16.00;99.90;;;;;;5048806;28;20080;-69
2022/10/29 10:13:17;;;;;;;22.05;10.75;;;16.10;99.90;;;;;;5049169;28;20378;-69
2022/10/29 10:15:50;;;;;;;29.38;11.02;;;16.20;99.90;;;;;;5050045;28;20044;-69
2022/10/29 10:18:22;;;;;;;26.08;10.35;;;16.20;99.90;;;;;;5050169;28;20041;-69
2022/10/29 10:21:07;;;;;;;25.90;11.18;;;16.20;99.90;;;;;;5049916;28;20037;-69
2022/10/29 10:23:46;;;;;;;19.75;11.02;;;16.30;99.90;;;;;;5050123;28;20041;-69
2022/10/29 10:26:38;;;;;;;23.25;11.55;;;16.40;99.90;;;;;;5051255;28;20091;-69
2022/10/29 10:29:05;;;;;;;26.70;11.82;;;16.40;99.90;;;;;;5052564;28;20400;-69
2022/10/29 10:31:30;;;;;;;26.77;12.63;;;16.50;99.90;;;;;;5053569;28;20095;-69
2022/10/29 10:33:56;;;;;;;29.05;12.38;;;16.60;99.90;;;;;;5052320;28;20048;-70
2022/10/29 10:36:27;;;;;;;27.35;12.15;;;16.70;99.90;;;;;;5053528;28;20075;-66
2022/10/29 10:38:56;;;;;;;28.75;11.80;;;16.70;99.90;;;;;;5052313;28;20076;-69
2022/10/29 10:41:26;;;;;;;27.35;12.38;;;16.70;99.90;;;;;;5053370;28;20053;-69
2022/10/29 10:43:57;;;;;;;28.17;12.73;;;16.70;99.90;;;;;;5053073;28;20056;-69
2022/10/29 10:46:28;;;;;;;31.00;12.45;;;16.70;99.90;;;;;;5053491;28;20063;-69
2022/10/29 10:49:14;;;;;;;27.83;12.65;;;16.80;99.90;;;;;;5052194;28;20037;-69
2022/10/29 10:51:47;;;;;;;29.55;12.40;;;16.90;99.90;;;;;;5053457;28;20083;-69
2022/10/29 10:54:35;;;;;;;33.35;13.30;;;16.90;99.90;;;;;;5052820;28;20094;-68
2022/10/29 10:57:19;;;;;;;27.38;12.80;;;16.90;99.90;;;;;;5053295;28;20048;-69
2022/10/29 10:59:54;;;;;;;29.73;12.20;;;17.00;99.90;;;;;;5052035;28;20057;-69
2022/10/29 11:02:29;;;;;;;29.15;12.70;;;17.00;99.90;;;;;;5053251;28;20573;-69
2022/10/29 11:05:04;;;;;;;25.13;11.45;;;17.00;99.90;;;;;;5053025;28;20067;-69
2022/10/29 11:07:34;;;;;;;28.92;12.10;;;17.10;99.90;;;;;;5052974;28;20117;-69
2022/10/29 11:10:03;;;;;;;23.83;12.10;;;17.10;99.90;;;;;;5052490;28;20044;-69
2022/10/29 11:12:46;;;;;;;25.88;11.93;;;17.10;99.90;;;;;;5049563;28;20041;-69
2022/10/29 11:15:35;;;;;;;22.73;10.32;;;17.10;99.90;;;;;;5032541;28;20502;-69
2022/10/29 11:18:20;;;;;;;26.63;10.15;;;17.20;99.90;;;;;;5032548;28;20091;-69
2022/10/29 11:20:57;;;;;;;25.38;11.02;;;17.10;99.90;;;;;;5050433;28;20112;-66
2022/10/29 11:23:42;;;;;;;20.27;10.10;;;17.20;99.90;;;;;;5052561;28;20120;-66
2022/10/29 11:26:26;;;;;;;21.63;10.27;;;17.20;99.90;;;;;;5052216;28;20144;-66
2022/10/29 11:29:11;;;;;;;23.45;11.73;;;17.20;99.90;;;;;;5052511;28;20037;-66
2022/10/29 11:31:42;;;;;;;25.27;10.85;;;17.20;99.90;;;;;;5052805;28;20081;-66
2022/10/29 11:34:17;;;;;;;26.58;10.23;;;17.20;99.90;;;;;;5052260;28;20114;-66
2022/10/29 11:36:59;;;;;;;24.25;10.00;;;17.30;99.90;;;;;;5052873;28;20040;-66
2022/10/29 11:39:37;;;;;;;28.83;10.68;;;17.30;99.90;;;;;;5052264;28;20041;-67
2022/10/29 11:42:04;;;;;;;28.05;10.70;;;17.30;99.90;;;;;;5052427;28;20084;-66
2022/10/29 11:44:36;;;;;;;28.48;11.70;;;17.30;99.90;;;;;;5052222;28;20063;-66
2022/10/29 11:47:18;;;;;;;30.50;11.70;;;17.30;99.90;;;;;;5052460;28;20134;-67
2022/10/29 11:50:13;;;;;;;27.90;11.40;;;17.40;99.90;;;;;;5050993;28;20029;-66
2022/10/29 11:52:56;;;;;;;27.83;11.60;;;17.40;99.90;;;;;;5052487;28;20040;-66
2022/10/29 11:55:36;;;;;;;21.40;10.93;;;17.40;99.90;;;;;;5051940;28;20582;-67
2022/10/29 11:58:19;;;;;;;23.52;10.93;;;17.50;99.90;;;;;;5052302;28;20125;-67
2022/10/29 12:00:47;;;;;;;23.75;11.07;;;17.50;99.90;;;;;;5051969;28;20072;-67
2022/10/29 12:03:32;;;;;;;27.40;10.70;;;17.60;99.90;;;;;;5052316;28;20051;-66
2022/10/29 12:06:16;;;;;;;28.38;10.95;;;17.50;99.90;;;;;;5051719;28;20135;-70
2022/10/29 12:09:18;;;;;;;28.33;11.80;;;17.60;99.90;;;;;;5052193;28;20045;-70
2022/10/29 12:12:16;;;;;;;22.65;10.40;;;17.60;99.90;;;;;;5051905;28;20178;-69
2022/10/29 12:14:51;;;;;;;26.70;11.63;;;17.70;99.90;;;;;;5051579;28;20589;-69
2022/10/29 12:17:30;;;;;;;24.65;11.55;;;17.70;99.90;;;;;;5051933;28;20053;-70
2022/10/29 12:20:31;;;;;;;23.50;11.30;;;17.80;99.90;;;;;;5052125;28;20150;-69
2022/10/29 12:23:06;;;;;;;26.63;11.90;;;17.80;99.90;;;;;;5051714;28;20453;-69
2022/10/29 12:25:50;;;;;;;21.23;11.48;;;17.90;99.90;;;;;;5051290;28;20049;-69
2022/10/29 12:28:35;;;;;;;27.33;11.55;;;18.00;99.90;;;;;;5051493;28;20120;-69
2022/10/29 12:31:14;;;;;;;23.70;11.77;;;18.00;99.90;;;;;;5051634;28;20069;-69
2022/10/29 12:33:54;;;;;;;27.30;11.23;;;18.00;99.90;;;;;;5051568;28;20446;-69
2022/10/29 12:36:28;;;;;;;21.23;11.05;;;18.00;99.90;;;;;;5051546;28;20037;-69
2022/10/29 12:38:59;;;;;;;19.70;10.32;;;18.00;99.90;;;;;;5051386;28;20393;-69
2022/10/29 12:41:38;;;;;;;30.83;11.93;;;18.00;99.90;;;;;;5051302;28;20135;-69
2022/10/29 12:44:16;;;;;;;31.73;12.05;;;18.00;99.90;;;;;;5051124;28;20045;-69
2022/10/29 12:46:55;;;;;;;27.50;11.70;;;18.00;99.90;;;;;;5051140;28;20457;-69
2022/10/29 12:49:42;;;;;;;24.75;10.65;;;18.00;99.90;;;;;;5049279;28;20084;-67
2022/10/29 12:52:19;;;;;;;27.17;11.65;;;18.00;99.90;;;;;;5049700;28;20092;-66
2022/10/29 12:54:48;;;;;;;29.20;12.70;;;18.00;99.90;;;;;;5050756;28;20485;-66